createdAt,value
2019-01-28T00:01:22.620Z,88.40
2019-01-28T00:03:52.004Z,88.40
2019-01-28T00:06:20.688Z,88.50
2019-01-28T00:08:49.105Z,88.40
2019-01-28T00:11:17.553Z,88.40
2019-01-28T00:13:45.974Z,88.40
2019-01-28T00:16:14.641Z,88.40
2019-01-28T00:18:43.130Z,88.50
2019-01-28T00:21:11.602Z,88.50
2019-01-28T00:23:40.009Z,88.60
2019-01-28T00:26:08.512Z,88.80
2019-01-28T00:28:37.561Z,88.80
2019-01-28T00:31:06.246Z,89.20
2019-01-28T00:33:35.187Z,89.20
2019-01-28T00:36:03.980Z,89.10
2019-01-28T00:38:32.602Z,89.20
2019-01-28T00:41:02.080Z,89.10
2019-01-28T00:43:30.392Z,89.70
2019-01-28T00:45:58.881Z,90.50
2019-01-28T00:48:27.188Z,90.30
2019-01-28T00:50:56.764Z,90.50
2019-01-28T00:53:25.757Z,90.60
2019-01-28T00:55:54.841Z,90.70
2019-01-28T00:58:23.381Z,90.70
2019-01-28T01:00:51.917Z,90.70
2019-01-28T01:03:20.573Z,90.60
2019-01-28T01:05:49.092Z,90.60
2019-01-28T01:08:17.589Z,90.60
2019-01-28T01:10:46.061Z,90.50
2019-01-28T01:13:14.356Z,90.50
2019-01-28T01:15:42.826Z,90.60
2019-01-28T01:18:11.555Z,90.40
2019-01-28T01:20:39.937Z,90.40
2019-01-28T01:23:08.374Z,90.50
2019-01-28T01:25:36.695Z,90.80
2019-01-28T01:28:05.121Z,91.00
2019-01-28T01:30:33.618Z,91.10
2019-01-28T01:33:02.041Z,91.20
2019-01-28T01:35:30.357Z,91.20
2019-01-28T01:38:00.053Z,91.50
2019-01-28T01:40:28.829Z,91.80
2019-01-28T01:42:57.340Z,91.70
2019-01-28T01:45:25.746Z,91.70
2019-01-28T01:47:54.463Z,91.30
2019-01-28T01:50:23.065Z,91.40
2019-01-28T01:52:51.885Z,91.70
2019-01-28T01:55:20.744Z,91.90
2019-01-28T01:57:49.666Z,91.90
2019-01-28T02:00:19.304Z,92.10
2019-01-28T02:02:48.093Z,92.30
2019-01-28T02:05:17.113Z,92.50
2019-01-28T02:07:45.950Z,92.60
2019-01-28T02:10:16.869Z,92.60
2019-01-28T02:12:46.205Z,92.70
2019-01-28T02:15:19.244Z,92.70
2019-01-28T02:17:47.890Z,92.70
2019-01-28T02:20:18.573Z,92.80
2019-01-28T02:22:47.600Z,92.90
2019-01-28T02:25:16.540Z,92.90
2019-01-28T02:27:45.700Z,92.90
2019-01-28T02:30:16.801Z,93.00
2019-01-28T02:32:45.871Z,93.10
2019-01-28T02:35:15.185Z,93.10
2019-01-28T02:37:44.134Z,93.20
2019-01-28T02:40:15.132Z,93.20
2019-01-28T02:42:43.778Z,93.20
2019-01-28T02:45:13.249Z,93.20
2019-01-28T02:47:42.178Z,93.30
2019-01-28T02:50:13.343Z,93.40
2019-01-28T02:52:42.113Z,93.50
2019-01-28T02:55:10.997Z,93.40
2019-01-28T02:57:39.761Z,93.40
2019-01-28T03:00:13.920Z,93.40
2019-01-28T03:02:43.029Z,93.50
2019-01-28T03:05:11.949Z,93.60
2019-01-28T03:07:40.876Z,93.60
2019-01-28T03:10:13.584Z,93.50
2019-01-28T03:12:42.377Z,93.50
2019-01-28T03:15:11.200Z,93.60
2019-01-28T03:17:40.055Z,93.50
2019-01-28T03:20:10.577Z,93.60
2019-01-28T03:22:39.510Z,94.00
2019-01-28T03:25:09.574Z,93.60
2019-01-28T03:27:40.432Z,93.60
2019-01-28T03:30:12.684Z,93.60
2019-01-28T03:32:41.837Z,93.70
2019-01-28T03:35:10.593Z,93.80
2019-01-28T03:37:39.681Z,93.90
2019-01-28T03:40:11.351Z,93.90
2019-01-28T03:42:39.893Z,93.90
2019-01-28T03:45:11.437Z,93.90
2019-01-28T03:47:40.454Z,94.00
2019-01-28T03:50:11.030Z,94.00
2019-01-28T03:52:39.877Z,94.50
2019-01-28T03:55:09.699Z,94.10
2019-01-28T03:57:39.007Z,94.10
2019-01-28T04:00:11.417Z,94.00
2019-01-28T04:02:40.212Z,94.00
2019-01-28T04:05:09.530Z,94.00
2019-01-28T04:07:38.665Z,94.00
2019-01-28T04:10:09.905Z,94.40
2019-01-28T04:12:38.891Z,94.10
2019-01-28T04:15:09.497Z,94.50
2019-01-28T04:17:38.383Z,94.10
2019-01-28T04:20:08.958Z,94.10
2019-01-28T04:22:37.485Z,94.10
2019-01-28T04:25:06.730Z,94.20
2019-01-28T04:27:35.458Z,94.20
2019-01-28T04:30:06.406Z,94.20
2019-01-28T04:32:35.293Z,94.20
2019-01-28T04:35:04.876Z,94.20
2019-01-28T04:37:33.585Z,94.20
2019-01-28T04:40:02.433Z,94.20
2019-01-28T04:42:31.020Z,94.20
2019-01-28T04:44:59.673Z,94.20
2019-01-28T04:47:28.268Z,94.30
2019-01-28T04:49:57.275Z,94.30
2019-01-28T04:52:25.929Z,94.70
2019-01-28T04:54:54.621Z,94.20
2019-01-28T04:57:23.401Z,94.20
2019-01-28T04:59:52.369Z,94.20
2019-01-28T05:02:21.461Z,94.20
2019-01-28T05:04:50.721Z,94.20
2019-01-28T05:07:19.654Z,94.20
2019-01-28T05:09:48.577Z,94.20
2019-01-28T05:12:17.145Z,94.30
2019-01-28T05:14:47.000Z,94.30
2019-01-28T05:17:15.989Z,94.40
2019-01-28T05:19:44.645Z,94.40
2019-01-28T05:22:13.655Z,94.40
2019-01-28T05:24:42.352Z,94.40
2019-01-28T05:27:11.391Z,94.40
2019-01-28T05:29:40.006Z,94.40
2019-01-28T05:32:09.076Z,94.40
2019-01-28T05:34:37.681Z,94.40
2019-01-28T05:37:06.466Z,94.40
2019-01-28T05:39:35.408Z,94.40
2019-01-28T05:42:04.984Z,94.40
2019-01-28T05:44:33.736Z,94.40
2019-01-28T05:47:02.568Z,94.40
2019-01-28T05:49:31.072Z,94.40
2019-01-28T05:52:00.149Z,94.40
2019-01-28T05:54:28.793Z,94.40
2019-01-28T05:56:57.453Z,94.40
2019-01-28T05:59:26.418Z,94.40
2019-01-28T06:01:55.040Z,94.40
2019-01-28T06:04:23.850Z,94.40
2019-01-28T06:06:52.727Z,94.50
2019-01-28T06:09:21.376Z,94.50
2019-01-28T06:11:50.709Z,94.50
2019-01-28T06:14:19.889Z,94.50
2019-01-28T06:16:48.685Z,94.60
2019-01-28T06:19:17.600Z,94.60
2019-01-28T06:21:46.799Z,94.40
2019-01-28T06:24:15.331Z,94.40
2019-01-28T06:26:44.374Z,94.40
2019-01-28T06:29:13.223Z,94.40
2019-01-28T06:31:41.837Z,94.40
2019-01-28T06:34:10.446Z,94.50
2019-01-28T06:36:39.132Z,94.50
2019-01-28T06:39:09.781Z,94.60
2019-01-28T06:41:39.085Z,94.60
2019-01-28T06:44:07.740Z,94.60
2019-01-28T06:46:36.684Z,94.60
2019-01-28T06:49:05.400Z,94.70
2019-01-28T06:51:34.205Z,94.70
2019-01-28T06:54:03.085Z,94.60
2019-01-28T06:56:31.682Z,94.80
2019-01-28T06:59:00.635Z,94.60
2019-01-28T07:01:29.369Z,94.50
2019-01-28T07:03:58.966Z,94.30
2019-01-28T07:06:27.740Z,94.50
2019-01-28T07:08:56.645Z,94.50
2019-01-28T07:11:25.285Z,94.40
2019-01-28T07:13:54.393Z,94.40
2019-01-28T07:16:22.722Z,94.40
2019-01-28T07:18:51.509Z,94.50
2019-01-28T07:21:20.064Z,94.60
2019-01-28T07:23:48.744Z,94.60
2019-01-28T07:26:17.487Z,94.60
2019-01-28T07:28:46.513Z,94.60
2019-01-28T07:31:15.341Z,94.60
2019-01-28T07:33:44.290Z,94.60
2019-01-28T07:36:21.900Z,94.40
2019-01-28T07:38:52.121Z,94.40
2019-01-28T07:41:21.053Z,94.40
2019-01-28T07:43:49.725Z,94.10
2019-01-28T07:46:18.983Z,93.80
2019-01-28T07:48:47.837Z,93.70
2019-01-28T07:51:16.813Z,94.10
2019-01-28T07:53:45.789Z,94.10
2019-01-28T07:56:14.759Z,93.70
2019-01-28T07:58:43.684Z,93.60
2019-01-28T08:01:12.894Z,94.20
2019-01-28T08:03:41.708Z,94.10
2019-01-28T08:06:11.603Z,94.20
2019-01-28T08:08:40.223Z,94.10
2019-01-28T08:11:09.474Z,94.00
2019-01-28T08:13:39.085Z,94.00
2019-01-28T08:16:08.268Z,93.90
2019-01-28T08:18:37.060Z,93.50
2019-01-28T08:21:06.097Z,93.20
2019-01-28T08:23:34.942Z,93.10
2019-01-28T08:26:03.730Z,93.10
2019-01-28T08:28:36.798Z,93.40
2019-01-28T08:31:03.883Z,93.90
2019-01-28T08:33:32.874Z,94.20
2019-01-28T08:36:01.609Z,94.20
2019-01-28T08:38:30.211Z,93.50
2019-01-28T08:40:59.281Z,93.80
2019-01-28T08:43:28.252Z,93.40
2019-01-28T08:45:57.165Z,93.20
2019-01-28T08:48:26.220Z,93.40
2019-01-28T08:50:55.165Z,99.50
2019-01-28T08:53:23.950Z,99.90
2019-01-28T08:55:52.577Z,99.90
2019-01-28T08:58:21.258Z,99.90
2019-01-28T09:00:49.946Z,99.90
2019-01-28T09:03:18.834Z,99.90
2019-01-28T09:05:47.292Z,99.90
2019-01-28T09:08:16.278Z,99.90
2019-01-28T09:10:45.622Z,99.90
2019-01-28T09:13:15.378Z,99.90
2019-01-28T09:15:44.479Z,99.90
2019-01-28T09:18:13.428Z,99.90
2019-01-28T09:20:43.149Z,99.90
2019-01-28T09:23:11.899Z,99.90
2019-01-28T09:25:40.820Z,99.90
2019-01-28T09:28:09.754Z,99.90
2019-01-28T09:30:38.601Z,99.90
2019-01-28T09:33:07.510Z,99.90
2019-01-28T09:35:36.318Z,99.90
2019-01-28T09:38:05.821Z,99.90
2019-01-28T09:40:35.578Z,99.90
2019-01-28T09:43:05.445Z,99.90
2019-01-28T09:45:37.117Z,99.90
2019-01-28T09:48:07.248Z,99.90
2019-01-28T09:50:37.091Z,99.90
2019-01-28T09:53:06.757Z,99.90
2019-01-28T09:55:35.506Z,99.90
2019-01-28T09:58:05.506Z,99.90
2019-01-28T10:00:41.264Z,99.90
2019-01-28T10:03:10.063Z,99.90
2019-01-28T10:05:38.876Z,99.90
2019-01-28T10:08:08.164Z,99.90
2019-01-28T10:10:36.868Z,99.90
2019-01-28T10:13:06.201Z,99.90
2019-01-28T10:15:34.948Z,99.90
2019-01-28T10:18:04.617Z,99.90
2019-01-28T10:20:39.057Z,99.90
2019-01-28T10:23:07.615Z,99.90
2019-01-28T10:25:36.876Z,99.90
2019-01-28T10:28:05.754Z,99.90
2019-01-28T10:30:36.973Z,99.90
2019-01-28T10:33:07.642Z,99.90
2019-01-28T10:35:37.265Z,99.90
2019-01-28T10:38:06.865Z,99.90
2019-01-28T10:40:36.428Z,99.90
2019-01-28T10:43:06.265Z,99.90
2019-01-28T10:45:35.317Z,99.90
2019-01-28T10:48:05.296Z,99.90
2019-01-28T10:50:34.841Z,99.90
2019-01-28T10:53:03.973Z,99.90
2019-01-28T10:55:32.605Z,99.90
2019-01-28T10:58:02.127Z,99.90
2019-01-28T11:00:33.183Z,99.90
2019-01-28T11:03:03.472Z,99.90
2019-01-28T11:05:33.275Z,99.90
2019-01-28T11:08:02.092Z,99.90
2019-01-28T11:10:30.897Z,99.90
2019-01-28T11:12:59.298Z,99.90
2019-01-28T11:15:28.506Z,99.90
2019-01-28T11:17:58.253Z,99.90
2019-01-28T11:20:26.943Z,99.90
2019-01-28T11:22:55.622Z,99.90
2019-01-28T11:25:26.582Z,99.90
2019-01-28T11:27:55.017Z,99.90
2019-01-28T11:30:49.758Z,99.90
2019-01-28T11:33:18.239Z,99.90
2019-01-28T11:35:47.679Z,99.90
2019-01-28T11:38:16.676Z,99.90
2019-01-28T11:40:45.561Z,99.90
2019-01-28T11:43:14.048Z,99.90
2019-01-28T11:45:54.998Z,99.90
2019-01-28T11:48:23.485Z,99.90
2019-01-28T11:50:56.175Z,99.90
2019-01-28T11:53:22.865Z,99.90
2019-01-28T11:55:54.389Z,99.90
2019-01-28T11:58:23.481Z,99.90
2019-01-28T12:01:01.601Z,99.90
2019-01-28T12:03:30.442Z,99.90
2019-01-28T12:05:59.041Z,99.90
2019-01-28T12:08:27.625Z,99.90
2019-01-28T12:10:56.481Z,99.90
2019-01-28T12:13:24.998Z,99.90
2019-01-28T12:15:53.933Z,99.90
2019-01-28T12:18:23.086Z,99.90
2019-01-28T12:20:53.788Z,99.90
2019-01-28T12:23:22.397Z,99.90
2019-01-28T12:25:51.305Z,99.90
2019-01-28T12:28:19.906Z,99.90
2019-01-28T12:30:48.668Z,99.90
2019-01-28T12:33:17.200Z,99.90
2019-01-28T12:35:46.233Z,99.90
2019-01-28T12:38:14.814Z,99.90
2019-01-28T12:40:43.271Z,99.90
2019-01-28T12:43:11.852Z,99.90
2019-01-28T12:45:40.353Z,99.90
2019-01-28T12:48:08.904Z,99.90
2019-01-28T12:50:37.696Z,99.90
2019-01-28T12:53:07.272Z,99.90
2019-01-28T12:55:35.828Z,99.90
2019-01-28T12:58:04.682Z,99.90
2019-01-28T13:00:41.972Z,99.90
2019-01-28T13:03:11.744Z,99.90
2019-01-28T13:05:40.736Z,99.90
2019-01-28T13:08:09.597Z,99.90
2019-01-28T13:10:41.393Z,99.90
2019-01-28T13:13:10.089Z,99.90
2019-01-28T13:15:38.848Z,99.90
2019-01-28T13:18:07.516Z,99.90
2019-01-28T13:20:36.543Z,99.90
2019-01-28T13:23:05.231Z,99.90
2019-01-28T13:25:34.013Z,99.90
2019-01-28T13:28:06.099Z,90.10
2019-01-28T13:30:38.381Z,87.40
2019-01-28T13:33:16.342Z,88.00
2019-01-28T13:35:51.709Z,87.30
2019-01-28T13:38:20.965Z,85.10
2019-01-28T13:40:50.118Z,83.40
2019-01-28T13:43:18.730Z,83.00
2019-01-28T13:45:48.239Z,81.10
2019-01-28T13:48:17.498Z,78.00
2019-01-28T13:50:47.676Z,75.50
2019-01-28T13:53:17.272Z,75.00
2019-01-28T13:55:45.823Z,75.10
2019-01-28T13:58:14.448Z,77.30
2019-01-28T14:00:43.589Z,78.00
2019-01-28T14:03:12.244Z,80.00
2019-01-28T14:05:40.896Z,82.40
2019-01-28T14:08:09.549Z,83.00
2019-01-28T14:10:38.283Z,83.50
2019-01-28T14:13:06.866Z,84.20
2019-01-28T14:15:38.430Z,84.40
2019-01-28T14:18:08.894Z,84.90
2019-01-28T14:20:37.294Z,85.10
2019-01-28T14:23:06.192Z,85.40
2019-01-28T14:25:36.334Z,85.60
2019-01-28T14:28:06.673Z,84.30
2019-01-28T14:30:43.510Z,84.90
2019-01-28T14:33:12.220Z,86.00
2019-01-28T14:35:41.863Z,86.40
2019-01-28T14:38:12.196Z,87.00
2019-01-28T14:40:42.505Z,87.60
2019-01-28T14:43:13.562Z,87.90
2019-01-28T14:45:42.835Z,88.10
2019-01-28T14:48:13.256Z,88.10
2019-01-28T14:50:42.335Z,88.20
2019-01-28T14:53:11.238Z,88.20
2019-01-28T14:55:40.323Z,88.20
2019-01-28T14:58:16.316Z,89.20
2019-01-28T15:00:44.328Z,88.40
2019-01-28T15:03:13.145Z,88.60
2019-01-28T15:05:42.656Z,88.80
2019-01-28T15:08:11.298Z,88.80
2019-01-28T15:10:39.881Z,88.80
2019-01-28T15:13:08.321Z,88.80
2019-01-28T15:15:38.179Z,88.80
2019-01-28T15:18:09.270Z,88.80
2019-01-28T15:20:37.950Z,88.90
2019-01-28T15:23:06.879Z,89.00
2019-01-28T15:25:35.607Z,88.90
2019-01-28T15:28:04.644Z,88.70
2019-01-28T15:30:34.037Z,88.30
2019-01-28T15:33:02.705Z,87.90
2019-01-28T15:35:31.878Z,88.10
2019-01-28T15:38:03.457Z,88.10
2019-01-28T15:40:33.345Z,87.90
2019-01-28T15:43:02.755Z,87.90
2019-01-28T15:45:37.175Z,87.10
2019-01-28T15:48:07.043Z,86.00
2019-01-28T15:50:36.138Z,85.10
2019-01-28T15:53:05.871Z,84.80
2019-01-28T15:55:36.993Z,84.40
2019-01-28T15:58:07.113Z,85.00
2019-01-28T16:00:37.113Z,85.40
2019-01-28T16:03:08.114Z,85.80
2019-01-28T16:05:37.441Z,85.70
2019-01-28T16:08:07.076Z,86.40
2019-01-28T16:10:36.739Z,85.30
2019-01-28T16:13:07.178Z,85.10
2019-01-28T16:15:42.446Z,85.80
2019-01-28T16:18:12.898Z,85.00
2019-01-28T16:20:43.857Z,85.10
2019-01-28T16:23:13.773Z,84.90
2019-01-28T16:25:42.440Z,84.80
2019-01-28T16:28:11.763Z,84.40
2019-01-28T16:30:43.311Z,84.00
2019-01-28T16:33:12.120Z,83.70
2019-01-28T16:35:40.941Z,83.40
2019-01-28T16:38:10.173Z,83.30
2019-01-28T16:40:38.986Z,82.80
2019-01-28T16:43:07.945Z,83.10
2019-01-28T16:45:37.406Z,82.20
2019-01-28T16:48:15.766Z,82.10
2019-01-28T16:50:46.302Z,81.80
2019-01-28T16:53:15.836Z,82.70
2019-01-28T16:55:45.991Z,82.10
2019-01-28T16:58:15.035Z,82.80
2019-01-28T17:00:47.715Z,82.80
2019-01-28T17:03:17.135Z,82.80
2019-01-28T17:05:46.869Z,82.90
2019-01-28T17:08:15.953Z,82.90
2019-01-28T17:10:45.395Z,83.00
2019-01-28T17:13:15.301Z,82.90
2019-01-28T17:15:44.197Z,83.00
2019-01-28T17:18:14.391Z,82.90
2019-01-28T17:20:42.956Z,82.90
2019-01-28T17:23:12.344Z,82.80
2019-01-28T17:25:44.347Z,82.70
2019-01-28T17:28:13.678Z,82.80
2019-01-28T17:30:48.143Z,83.10
2019-01-28T17:33:17.642Z,83.40
2019-01-28T17:35:46.949Z,83.70
2019-01-28T17:38:17.078Z,83.60
2019-01-28T17:40:46.721Z,83.60
2019-01-28T17:43:17.758Z,84.10
2019-01-28T17:45:46.484Z,84.80
2019-01-28T17:48:15.433Z,85.30
2019-01-28T17:50:44.722Z,85.80
2019-01-28T17:53:13.633Z,86.20
2019-01-28T17:55:51.955Z,86.40
2019-01-28T17:58:24.075Z,86.40
2019-01-28T18:00:58.187Z,86.50
2019-01-28T18:03:29.490Z,86.60
2019-01-28T18:05:58.578Z,86.70
2019-01-28T18:08:27.422Z,86.70
2019-01-28T18:10:55.996Z,86.80
2019-01-28T18:13:24.669Z,86.80
2019-01-28T18:15:52.998Z,87.00
2019-01-28T18:18:22.256Z,87.00
2019-01-28T18:20:52.305Z,87.10
2019-01-28T18:23:39.272Z,87.20
2019-01-28T18:26:07.928Z,87.30
2019-01-28T18:28:36.559Z,87.40
2019-01-28T18:31:04.978Z,87.60
2019-01-28T18:33:33.681Z,87.60
2019-01-28T18:36:05.647Z,87.60
2019-01-28T18:38:33.296Z,87.70
2019-01-28T18:41:01.766Z,87.90
2019-01-28T18:43:31.481Z,88.00
2019-01-28T18:46:00.409Z,88.00
2019-01-28T18:48:29.078Z,88.10
2019-01-28T18:50:59.802Z,88.30
2019-01-28T18:53:29.181Z,88.60
2019-01-28T18:55:58.361Z,88.60
2019-01-28T18:58:26.838Z,88.70
2019-01-28T19:00:55.313Z,88.80
2019-01-28T19:03:23.779Z,88.90
2019-01-28T19:06:02.164Z,88.90
2019-01-28T19:08:56.047Z,89.00
2019-01-28T19:11:46.943Z,89.00
2019-01-28T19:14:38.272Z,88.90
2019-01-28T19:17:32.145Z,89.00
2019-01-28T19:20:18.008Z,89.00
2019-01-28T19:22:46.453Z,89.10
2019-01-28T19:25:15.033Z,89.20
2019-01-28T19:27:43.529Z,89.20
2019-01-28T19:30:15.677Z,89.20
2019-01-28T19:32:44.336Z,89.20
2019-01-28T19:35:12.905Z,89.00
2019-01-28T19:37:41.608Z,88.80
2019-01-28T19:40:11.826Z,88.90
2019-01-28T19:42:42.555Z,88.80
2019-01-28T19:45:17.814Z,88.70
2019-01-28T19:47:47.938Z,88.80
2019-01-28T19:50:19.080Z,88.80
2019-01-28T19:52:48.922Z,89.00
2019-01-28T19:55:17.665Z,89.10
2019-01-28T19:57:46.692Z,89.20
2019-01-28T20:00:28.395Z,89.20
2019-01-28T20:02:59.342Z,89.20
2019-01-28T20:05:28.468Z,89.20
2019-01-28T20:07:57.352Z,89.20
2019-01-28T20:10:26.722Z,89.30
2019-01-28T20:12:56.672Z,89.50
2019-01-28T20:15:26.017Z,89.60
2019-01-28T20:18:00.061Z,89.60
2019-01-28T20:20:29.345Z,89.60
2019-01-28T20:22:59.869Z,89.60
2019-01-28T20:25:31.232Z,89.60
2019-01-28T20:28:02.701Z,89.60
2019-01-28T20:30:35.667Z,89.60
2019-01-28T20:33:06.581Z,89.50
2019-01-28T20:35:36.869Z,89.50
2019-01-28T20:38:06.529Z,89.50
2019-01-28T20:40:36.186Z,89.60
2019-01-28T20:43:06.690Z,89.70
2019-01-28T20:45:44.765Z,89.90
2019-01-28T20:48:08.235Z,90.00
2019-01-28T20:50:37.490Z,90.00
2019-01-28T20:53:06.266Z,90.00
2019-01-28T20:55:35.374Z,90.00
2019-01-28T20:58:04.868Z,90.00
2019-01-28T21:00:33.311Z,90.10
2019-01-28T21:03:02.036Z,90.00
2019-01-28T21:05:31.151Z,90.10
2019-01-28T21:08:00.291Z,90.10
2019-01-28T21:10:28.807Z,90.00
2019-01-28T21:12:57.607Z,90.00
2019-01-28T21:15:26.025Z,90.00
2019-01-28T21:17:54.611Z,90.00
2019-01-28T21:20:23.383Z,90.10
2019-01-28T21:22:51.996Z,90.00
2019-01-28T21:25:23.177Z,90.00
2019-01-28T21:27:52.457Z,90.10
2019-01-28T21:30:31.851Z,90.10
2019-01-28T21:33:00.760Z,90.20
2019-01-28T21:35:47.848Z,90.10
2019-01-28T21:38:21.204Z,90.60
2019-01-28T21:40:50.203Z,90.10
2019-01-28T21:43:19.445Z,90.00
2019-01-28T21:45:47.979Z,90.10
2019-01-28T21:48:16.773Z,90.10
2019-01-28T21:50:45.182Z,90.00
2019-01-28T21:53:13.910Z,90.00
2019-01-28T21:55:42.685Z,90.00
2019-01-28T21:58:11.172Z,91.30
2019-01-28T22:00:39.909Z,93.80
2019-01-28T22:03:08.462Z,90.80
2019-01-28T22:05:36.925Z,99.90
2019-01-28T22:08:06.015Z,99.90
2019-01-28T22:10:34.506Z,99.90
2019-01-28T22:13:03.504Z,99.90
2019-01-28T22:15:33.415Z,99.90
2019-01-28T22:18:01.799Z,99.90
2019-01-28T22:20:32.455Z,99.90
2019-01-28T22:23:00.904Z,99.90
2019-01-28T22:25:29.388Z,99.90
2019-01-28T22:27:57.833Z,99.90
2019-01-28T22:30:30.621Z,99.90
2019-01-28T22:32:59.049Z,99.60
2019-01-28T22:35:27.765Z,99.50
2019-01-28T22:37:56.268Z,99.50
2019-01-28T22:40:24.613Z,99.50
2019-01-28T22:42:53.094Z,99.50
2019-01-28T22:45:22.023Z,99.60
2019-01-28T22:47:50.666Z,99.60
2019-01-28T22:50:21.108Z,99.60
2019-01-28T22:52:49.705Z,99.70
2019-01-28T22:55:19.213Z,99.70
2019-01-28T22:57:47.668Z,99.80
2019-01-28T23:00:36.065Z,99.80
2019-01-28T23:03:05.825Z,99.70
2019-01-28T23:05:34.228Z,99.90
2019-01-28T23:08:02.668Z,99.80
2019-01-28T23:10:31.337Z,99.80
2019-01-28T23:12:59.898Z,99.70
2019-01-28T23:15:28.202Z,99.70
2019-01-28T23:17:56.658Z,99.80
2019-01-28T23:20:24.961Z,99.80
2019-01-28T23:22:53.410Z,99.70
2019-01-28T23:25:21.821Z,99.80
2019-01-28T23:27:50.356Z,99.80
2019-01-28T23:30:19.046Z,99.70
2019-01-28T23:32:47.438Z,99.60
2019-01-28T23:35:15.950Z,99.70
2019-01-28T23:37:44.408Z,99.80
2019-01-28T23:40:13.553Z,99.90
2019-01-28T23:42:43.173Z,99.90
2019-01-28T23:45:11.936Z,99.90
2019-01-28T23:47:40.536Z,99.90
2019-01-28T23:50:09.165Z,99.90
2019-01-28T23:52:37.729Z,99.90
2019-01-28T23:55:06.837Z,99.90
2019-01-28T23:57:35.473Z,99.90
